createdAt,value
2019-05-18T00:01:51.602Z,10.17
2019-05-18T00:04:22.372Z,10.40
2019-05-18T00:06:53.132Z,8.87
2019-05-18T00:09:23.908Z,10.00
2019-05-18T00:11:54.671Z,9.30
2019-05-18T00:14:25.781Z,9.90
2019-05-18T00:16:56.544Z,9.47
2019-05-18T00:19:27.343Z,9.80
2019-05-18T00:21:58.127Z,9.40
2019-05-18T00:24:28.914Z,9.00
2019-05-18T00:26:59.779Z,10.23
2019-05-18T00:29:30.557Z,9.67
2019-05-18T00:32:01.354Z,9.83
2019-05-18T00:34:32.142Z,9.97
2019-05-18T00:37:03.207Z,9.93
2019-05-18T00:39:34.011Z,9.37
2019-05-18T00:42:04.753Z,9.20
2019-05-18T00:44:35.537Z,10.37
2019-05-18T00:47:06.380Z,9.30
2019-05-18T00:49:37.189Z,9.20
2019-05-18T00:52:07.951Z,9.63
2019-05-18T00:54:38.746Z,9.40
2019-05-18T00:57:09.511Z,9.00
2019-05-18T00:59:40.294Z,10.10
2019-05-18T01:16:29.972Z,8.90
2019-05-18T01:19:00.783Z,9.13
2019-05-18T01:21:31.626Z,8.90
2019-05-18T01:24:02.842Z,8.80
2019-05-18T01:27:27.942Z,8.73
2019-05-18T01:48:22.720Z,8.60
2019-05-18T01:50:59.762Z,8.67
2019-05-18T01:53:30.529Z,8.37
2019-05-18T01:56:01.404Z,9.23
2019-05-18T01:58:32.180Z,9.10
2019-05-18T02:01:03.665Z,9.27
2019-05-18T02:03:34.432Z,8.77
2019-05-18T02:06:05.211Z,9.80
2019-05-18T02:08:35.970Z,8.80
2019-05-18T02:11:06.743Z,9.83
2019-05-18T02:13:37.751Z,9.80
2019-05-18T02:16:08.548Z,9.33
2019-05-18T02:18:39.320Z,9.67
2019-05-18T02:21:10.099Z,9.83
2019-05-18T02:23:40.869Z,9.13
2019-05-18T02:26:11.645Z,9.23
2019-05-18T02:28:42.405Z,9.83
2019-05-18T02:31:29.106Z,10.57
2019-05-18T02:33:59.888Z,9.30
2019-05-18T02:36:30.687Z,10.30
2019-05-18T02:39:01.528Z,10.13
2019-05-18T02:41:32.298Z,9.87
2019-05-18T02:44:03.977Z,9.33
2019-05-18T02:46:34.777Z,9.27
2019-05-18T02:49:05.806Z,9.77
2019-05-18T02:51:36.595Z,10.17
2019-05-18T02:54:07.389Z,9.73
2019-05-18T02:56:38.161Z,9.80
2019-05-18T02:59:08.929Z,10.97
2019-05-18T03:01:39.710Z,10.93
2019-05-18T03:04:10.464Z,10.10
2019-05-18T03:06:41.253Z,9.90
2019-05-18T03:09:12.034Z,10.50
2019-05-18T03:11:43.021Z,10.20
2019-05-18T03:14:13.818Z,10.50
2019-05-18T03:16:44.605Z,10.33
2019-05-18T03:19:15.384Z,10.20
2019-05-18T03:21:46.177Z,9.87
2019-05-18T03:24:17.083Z,10.47
2019-05-18T03:26:47.822Z,11.27
2019-05-18T03:29:18.616Z,10.87
2019-05-18T03:31:49.393Z,10.53
2019-05-18T03:34:20.180Z,11.53
2019-05-18T03:36:50.939Z,11.17
2019-05-18T03:39:21.731Z,10.87
2019-05-18T03:41:52.502Z,10.20
2019-05-18T03:44:23.263Z,11.30
2019-05-18T03:46:54.146Z,11.43
2019-05-18T03:49:27.362Z,11.00
2019-05-18T03:51:57.595Z,10.73
2019-05-18T03:54:28.370Z,10.53
2019-05-18T03:56:59.141Z,11.50
2019-05-18T03:59:29.903Z,10.83
2019-05-18T04:02:00.712Z,11.10
2019-05-18T04:04:31.466Z,11.07
2019-05-18T04:07:02.347Z,10.80
2019-05-18T04:09:33.100Z,11.17
2019-05-18T04:12:03.875Z,11.40
2019-05-18T04:14:34.640Z,11.67
2019-05-18T04:17:05.417Z,11.17
2019-05-18T04:19:46.488Z,11.00
2019-05-18T04:22:08.874Z,11.80
2019-05-18T04:24:39.645Z,11.67
2019-05-18T04:27:38.982Z,11.90
2019-05-18T04:30:09.953Z,10.57
2019-05-18T04:32:40.716Z,11.70
2019-05-18T04:35:11.512Z,9.90
2019-05-18T04:37:42.260Z,10.90
2019-05-18T04:40:13.426Z,10.90
2019-05-18T04:42:44.194Z,12.50
2019-05-18T04:45:15.155Z,11.10
2019-05-18T04:47:48.646Z,11.37
2019-05-18T04:50:18.776Z,11.80
2019-05-18T04:52:49.544Z,11.43
2019-05-18T04:55:20.336Z,10.77
2019-05-18T04:57:51.117Z,12.00
2019-05-18T05:00:21.889Z,11.13
2019-05-18T05:02:52.683Z,11.33
2019-05-18T05:05:23.473Z,11.50
2019-05-18T05:07:54.273Z,11.63
2019-05-18T05:10:25.059Z,11.60
2019-05-18T05:12:55.855Z,11.00
2019-05-18T05:15:26.612Z,11.30
2019-05-18T05:17:57.400Z,10.47
2019-05-18T05:20:28.212Z,10.70
2019-05-18T05:22:59.018Z,11.17
2019-05-18T05:25:29.795Z,10.80
2019-05-18T05:28:00.563Z,11.00
2019-05-18T05:30:31.330Z,10.37
2019-05-18T05:33:02.101Z,10.97
2019-05-18T05:35:32.881Z,11.10
2019-05-18T05:38:03.657Z,11.17
2019-05-18T05:40:34.503Z,11.50
2019-05-18T05:43:05.339Z,10.40
2019-05-18T05:45:36.116Z,11.80
2019-05-18T05:48:06.908Z,11.10
2019-05-18T05:50:37.690Z,10.20
2019-05-18T05:53:08.480Z,10.77
2019-05-18T05:55:39.262Z,10.80
2019-05-18T05:58:10.042Z,10.53
2019-05-18T06:00:40.808Z,9.93
2019-05-18T06:03:11.609Z,10.27
2019-05-18T06:05:42.390Z,10.97
2019-05-18T06:08:13.179Z,10.30
2019-05-18T06:10:43.977Z,10.50
2019-05-18T06:13:14.764Z,10.37
2019-05-18T06:15:45.546Z,9.80
2019-05-18T06:18:17.467Z,9.63
2019-05-18T06:20:51.490Z,9.40
2019-05-18T06:23:20.965Z,10.00
2019-05-18T06:25:51.767Z,9.47
2019-05-18T06:28:22.653Z,9.03
2019-05-18T06:30:53.408Z,9.10
2019-05-18T06:33:24.194Z,8.90
2019-05-18T06:35:54.957Z,8.70
2019-05-18T06:38:25.742Z,8.70
2019-05-18T06:40:56.517Z,9.00
2019-05-18T06:43:27.289Z,9.07
2019-05-18T06:45:58.049Z,9.23
2019-05-18T06:48:28.849Z,8.63
2019-05-18T06:51:07.158Z,9.00
2019-05-18T06:53:32.325Z,8.93
2019-05-18T06:56:03.309Z,8.57
2019-05-18T06:58:34.080Z,8.53
2019-05-18T07:01:04.887Z,8.00
2019-05-18T07:03:36.289Z,8.50
2019-05-18T07:06:07.376Z,8.10
2019-05-18T07:08:39.096Z,8.40
2019-05-18T07:11:09.896Z,8.40
2019-05-18T07:13:40.692Z,8.03
2019-05-18T07:16:11.462Z,8.60
2019-05-18T07:18:42.351Z,8.70
2019-05-18T07:21:21.779Z,8.93
2019-05-18T07:23:45.827Z,9.20
2019-05-18T07:26:16.933Z,9.70
2019-05-18T07:28:47.753Z,9.70
2019-05-18T07:31:18.527Z,9.07
2019-05-18T07:33:49.315Z,8.63
2019-05-18T07:36:20.328Z,9.20
2019-05-18T07:38:51.111Z,9.67
2019-05-18T07:41:21.993Z,9.10
2019-05-18T07:43:52.767Z,8.77
2019-05-18T07:46:23.536Z,8.63
2019-05-18T07:48:54.398Z,8.60
2019-05-18T07:51:36.239Z,9.10
2019-05-18T07:53:57.922Z,9.10
2019-05-18T07:56:28.743Z,8.40
2019-05-18T07:58:59.497Z,8.50
2019-05-18T08:01:30.273Z,8.97
2019-05-18T08:04:01.053Z,9.03
2019-05-18T08:06:31.851Z,9.30
2019-05-18T08:09:05.228Z,8.87
2019-05-18T08:11:36.008Z,8.97
2019-05-18T08:14:06.771Z,9.47
2019-05-18T08:16:37.572Z,9.40
2019-05-18T08:19:08.332Z,9.27
2019-05-18T08:21:52.305Z,9.23
2019-05-18T08:24:11.815Z,9.80
2019-05-18T08:26:42.654Z,9.80
2019-05-18T08:29:13.396Z,9.90
2019-05-18T08:31:44.190Z,9.40
2019-05-18T08:34:14.956Z,9.30
2019-05-18T08:36:45.735Z,9.60
2019-05-18T08:39:16.507Z,9.63
2019-05-18T08:41:48.880Z,9.40
2019-05-18T08:44:20.014Z,10.53
2019-05-18T08:46:50.776Z,9.70
2019-05-18T08:49:21.569Z,9.90
2019-05-18T08:52:07.214Z,10.20
2019-05-18T08:54:25.051Z,9.43
2019-05-18T08:56:55.828Z,10.40
2019-05-18T08:59:26.597Z,9.53
2019-05-18T09:01:57.414Z,9.90
2019-05-18T09:04:28.187Z,10.27
2019-05-18T09:06:58.996Z,9.63
2019-05-18T09:09:29.783Z,9.93
2019-05-18T09:12:00.561Z,9.43
2019-05-18T09:14:31.331Z,10.23
2019-05-18T09:17:02.197Z,10.17
2019-05-18T09:19:33.022Z,9.53
2019-05-18T09:22:03.811Z,10.27
2019-05-18T09:24:34.584Z,10.27
2019-05-18T09:27:05.389Z,9.50
2019-05-18T09:29:36.167Z,9.30
2019-05-18T09:32:06.963Z,9.40
2019-05-18T09:34:37.756Z,10.43
2019-05-18T09:37:08.531Z,9.80
2019-05-18T09:39:39.306Z,10.00
2019-05-18T09:52:12.872Z,9.83
